EKNM weather

Morsø Airport, Tødsø
Morsø, North Jutland, Denmark

Public forecast

Using degrees Celsius for public forecast. Weather courtesy of forecast.io.

Closest aviation weather report (METAR) to Morsø Airport, Tødsø

Closest report is Karup Airport, 33.6 nm (62.1 km) SSE. Retrieved 2019/10/19 04:20 UTC (6 minutes ago):

EKKA 190420Z AUTO 20008KT 9999 NCD 10/09 Q1000

Closest aviation forecast (TAF) to Morsø Airport, Tødsø

Closest forecast is Karup Airport, 33.6 nm (62.1 km) SSE. Retrieved 2019-10-19 03:31 UTC (55 minutes ago):

TAF EKKA 190224Z 1903/2003 20010KT 9999 BKN030 TEMPO 1903/1909 4000 SHRA BR BKN008 BKN020CB TEMPO 1909/2003 7000 -SHRA BKN012 FEW020TCU